Time;durP1;ratioP1;P1;durP2;ratioP2;P2;SDS_P1;SDS_P2;PMS_P1;PMS_P2;Temp;Humidity;BMP_temperature;BMP_pressure;BME280_temperature;BME280_humidity;BME280_pressure;Samples;Min_cycle;Max_cycle;Signal;HPM_P1;HPM_P2
2024/03/03 00:02:20;;;;;;;2.70;0.20;;;16.90;39.00;;;;;;6300257;28;20040;-73
2024/03/03 00:05:21;;;;;;;0.45;0.30;;;16.90;39.00;;;;;;6303479;28;20024;-75
2024/03/03 00:08:23;;;;;;;0.88;0.20;;;16.90;39.20;;;;;;6294316;28;20023;-75
2024/03/03 00:11:24;;;;;;;0.10;0.10;;;16.80;39.30;;;;;;6285321;28;20624;-73
2024/03/03 00:14:25;;;;;;;0.30;0.25;;;16.80;39.50;;;;;;6297980;28;20055;-74
2024/03/03 00:17:26;;;;;;;0.20;0.20;;;16.70;39.90;;;;;;6320014;28;20517;-73
2024/03/03 00:20:29;;;;;;;0.10;0.05;;;16.60;40.30;;;;;;6289182;28;20016;-75
2024/03/03 00:23:29;;;;;;;0.10;0.10;;;16.70;40.70;;;;;;6304555;28;20058;-75
2024/03/03 00:26:33;;;;;;;0.10;0.10;;;16.60;41.00;;;;;;6288055;28;20083;-74
2024/03/03 00:29:35;;;;;;;0.32;0.10;;;16.60;41.20;;;;;;6297686;28;20046;-74
2024/03/03 00:32:36;;;;;;;0.30;0.20;;;16.50;41.50;;;;;;6299577;28;20077;-75
2024/03/03 00:35:38;;;;;;;0.03;0.03;;;16.50;41.80;;;;;;6269267;28;20203;-74
2024/03/03 00:38:39;;;;;;;0.00;0.00;;;16.50;41.90;;;;;;6304629;28;20136;-73
2024/03/03 00:41:40;;;;;;;0.10;0.10;;;16.40;42.30;;;;;;6301075;28;20032;-75
2024/03/03 00:44:42;;;;;;;2.97;0.20;;;16.40;42.50;;;;;;6296341;28;20432;-73
2024/03/03 00:47:44;;;;;;;0.10;0.10;;;16.40;42.60;;;;;;6283509;28;20019;-73
2024/03/03 00:50:45;;;;;;;0.05;0.05;;;16.30;42.70;;;;;;6281549;28;20051;-74
2024/03/03 00:53:46;;;;;;;0.47;0.30;;;16.30;43.00;;;;;;6303818;28;20166;-75
2024/03/03 00:56:47;;;;;;;0.20;0.20;;;16.20;43.20;;;;;;6279992;28;20025;-74
2024/03/03 01:00:17;;;;;;;0.45;0.17;;;16.20;43.30;;;;;;6280118;28;20025;-75
2024/03/03 01:03:43;;;;;;;0.10;0.10;;;16.10;43.30;;;;;;6303051;28;20134;-74
2024/03/03 01:06:44;;;;;;;0.20;0.17;;;16.10;43.30;;;;;;6304652;28;20016;-74
2024/03/03 01:09:45;;;;;;;0.10;0.10;;;16.10;43.30;;;;;;6300915;28;20436;-74
2024/03/03 01:12:46;;;;;;;0.15;0.15;;;16.10;43.30;;;;;;6296179;28;20163;-74
2024/03/03 01:15:47;;;;;;;0.30;0.10;;;16.10;43.10;;;;;;6295119;28;20044;-75
2024/03/03 01:18:48;;;;;;;0.10;0.10;;;16.20;43.00;;;;;;6291590;28;20024;-74
2024/03/03 01:21:49;;;;;;;0.13;0.10;;;16.10;42.80;;;;;;6296686;28;20041;-74
2024/03/03 01:24:50;;;;;;;0.10;0.10;;;16.20;42.70;;;;;;6289074;28;20019;-74
2024/03/03 01:27:52;;;;;;;0.10;0.10;;;16.20;42.50;;;;;;6297647;28;20054;-75
2024/03/03 01:30:54;;;;;;;2.92;0.10;;;16.20;42.40;;;;;;6304611;28;20099;-74
2024/03/03 01:33:55;;;;;;;0.13;0.00;;;16.30;42.20;;;;;;6280660;28;20025;-73
2024/03/03 01:36:55;;;;;;;0.17;0.10;;;16.30;42.00;;;;;;6303956;28;20016;-75
2024/03/03 01:39:58;;;;;;;0.03;0.03;;;16.30;41.80;;;;;;6295040;28;20523;-74
2024/03/03 01:43:00;;;;;;;0.00;0.00;;;16.40;41.70;;;;;;6283625;28;20036;-74
2024/03/03 01:46:02;;;;;;;0.10;0.10;;;16.40;41.60;;;;;;6295795;28;20017;-73
2024/03/03 01:49:12;;;;;;;0.20;0.20;;;16.40;41.40;;;;;;6292739;28;20027;-73
2024/03/03 01:52:14;;;;;;;0.40;0.10;;;16.40;41.30;;;;;;6288499;28;20099;-74
2024/03/03 01:55:18;;;;;;;0.10;0.10;;;16.50;41.20;;;;;;6282033;28;20079;-74
2024/03/03 01:58:19;;;;;;;0.10;0.10;;;16.50;41.10;;;;;;6303346;28;20032;-74
2024/03/03 02:01:20;;;;;;;0.08;0.08;;;16.40;41.10;;;;;;6309619;28;20573;-73
2024/03/03 02:04:23;;;;;;;0.00;0.00;;;16.40;41.10;;;;;;6290597;28;20468;-73
2024/03/03 02:07:25;;;;;;;0.10;0.10;;;16.50;41.10;;;;;;6308931;28;20048;-74
2024/03/03 02:10:28;;;;;;;1.45;0.10;;;16.50;41.20;;;;;;6288047;28;20029;-74
2024/03/03 02:13:30;;;;;;;0.00;0.00;;;16.50;41.10;;;;;;6287410;28;20039;-74
2024/03/03 02:16:31;;;;;;;0.00;0.00;;;16.50;41.20;;;;;;6299552;28;20076;-75
2024/03/03 02:19:34;;;;;;;0.22;0.20;;;16.40;41.10;;;;;;6305447;28;20116;-74
2024/03/03 02:22:36;;;;;;;0.22;0.20;;;16.40;41.10;;;;;;6307593;28;20367;-73
2024/03/03 02:25:39;;;;;;;0.15;0.15;;;16.40;41.10;;;;;;6289399;28;20048;-74
2024/03/03 02:28:41;;;;;;;1.55;0.30;;;16.40;41.10;;;;;;6296342;28;20028;-73
2024/03/03 02:31:42;;;;;;;0.20;0.20;;;16.40;41.10;;;;;;6307362;28;20028;-73
2024/03/03 02:34:43;;;;;;;0.08;0.08;;;16.40;41.00;;;;;;6297076;28;20043;-74
2024/03/03 02:37:47;;;;;;;0.38;0.10;;;16.50;41.00;;;;;;6299528;28;20054;-73
2024/03/03 02:40:48;;;;;;;0.00;0.00;;;16.40;41.00;;;;;;6286487;28;20043;-74
2024/03/03 02:43:49;;;;;;;0.10;0.10;;;16.40;40.90;;;;;;6267997;28;20033;-75
2024/03/03 02:46:50;;;;;;;0.00;0.00;;;16.40;40.90;;;;;;6318888;28;20099;-74
2024/03/03 02:49:51;;;;;;;0.80;0.10;;;16.40;40.90;;;;;;6278701;28;20028;-74
2024/03/03 02:53:26;;;;;;;0.00;0.00;;;16.40;40.90;;;;;;6305335;28;20534;-74
2024/03/03 02:56:52;;;;;;;0.10;0.10;;;16.40;41.00;;;;;;6298411;28;20044;-74
2024/03/03 02:59:55;;;;;;;0.10;0.10;;;16.40;41.10;;;;;;6296405;28;20845;-74
2024/03/03 03:02:56;;;;;;;0.17;0.10;;;16.40;41.10;;;;;;6272935;28;20036;-74
2024/03/03 03:05:57;;;;;;;0.10;0.10;;;16.30;41.00;;;;;;6306561;28;20089;-74
2024/03/03 03:08:58;;;;;;;0.17;0.17;;;16.30;41.10;;;;;;6295818;28;20149;-72
2024/03/03 03:11:59;;;;;;;0.00;0.00;;;16.40;41.10;;;;;;6290860;28;20468;-74
2024/03/03 03:15:00;;;;;;;0.00;0.00;;;16.30;41.00;;;;;;6302493;28;20448;-73
2024/03/03 03:18:03;;;;;;;0.22;0.10;;;16.40;41.10;;;;;;6305858;28;20024;-75
2024/03/03 03:21:06;;;;;;;0.08;0.08;;;16.30;41.00;;;;;;6305891;28;20061;-74
2024/03/03 03:24:09;;;;;;;0.00;0.00;;;16.40;41.00;;;;;;6291921;28;20033;-73
2024/03/03 03:27:10;;;;;;;0.25;0.22;;;16.40;40.90;;;;;;6276957;28;20024;-73
2024/03/03 03:30:12;;;;;;;0.50;0.50;;;16.30;40.80;;;;;;6278260;28;20028;-74
2024/03/03 03:33:14;;;;;;;0.15;0.10;;;16.40;40.80;;;;;;6287850;28;20043;-74
2024/03/03 03:36:17;;;;;;;0.10;0.00;;;16.30;41.20;;;;;;6289449;28;20119;-74
2024/03/03 03:39:19;;;;;;;0.80;0.30;;;16.30;40.90;;;;;;6304138;28;20227;-75
2024/03/03 03:42:20;;;;;;;0.00;0.00;;;16.30;41.00;;;;;;6263759;28;20182;-74
2024/03/03 03:45:21;;;;;;;13.30;4.88;;;16.30;41.00;;;;;;6282969;28;20165;-74
2024/03/03 03:48:33;;;;;;;0.10;0.10;;;16.20;41.70;;;;;;6289761;28;20016;-73
2024/03/03 03:51:34;;;;;;;0.10;0.10;;;16.20;41.30;;;;;;6264215;28;20033;-74
2024/03/03 03:54:35;;;;;;;0.00;0.00;;;16.20;41.40;;;;;;6296971;28;20708;-72
2024/03/03 03:57:36;;;;;;;0.10;0.10;;;16.10;41.50;;;;;;6295160;28;20502;-74
2024/03/03 04:00:37;;;;;;;0.05;0.05;;;16.00;41.70;;;;;;6289530;28;20035;-73
2024/03/03 04:03:38;;;;;;;0.08;0.08;;;16.00;41.80;;;;;;6295547;28;20047;-74
2024/03/03 04:06:39;;;;;;;0.10;0.10;;;16.00;41.90;;;;;;6284155;28;20119;-74
2024/03/03 04:09:41;;;;;;;1.27;0.85;;;16.00;42.00;;;;;;6288678;28;20064;-74
2024/03/03 04:12:42;;;;;;;0.20;0.20;;;15.90;42.00;;;;;;6281069;28;20606;-74
2024/03/03 04:15:45;;;;;;;0.10;0.10;;;15.90;42.10;;;;;;6304248;28;20020;-73
2024/03/03 04:18:46;;;;;;;4.80;0.20;;;15.90;42.10;;;;;;6291792;28;20534;-75
2024/03/03 04:21:47;;;;;;;2.00;0.20;;;15.90;42.00;;;;;;6282450;28;20050;-75
2024/03/03 04:24:48;;;;;;;0.30;0.30;;;15.90;41.90;;;;;;6296531;28;20020;-74
2024/03/03 04:27:50;;;;;;;0.03;0.03;;;15.90;42.10;;;;;;6299953;28;20099;-74
2024/03/03 04:30:50;;;;;;;0.13;0.13;;;15.90;42.00;;;;;;6268110;28;20058;-75
2024/03/03 04:33:51;;;;;;;0.15;0.15;;;15.90;42.00;;;;;;6287757;28;20543;-74
2024/03/03 04:36:52;;;;;;;0.10;0.10;;;15.90;42.10;;;;;;6306215;28;20049;-74
2024/03/03 04:39:53;;;;;;;0.10;0.10;;;15.90;42.20;;;;;;6284053;28;20024;-74
2024/03/03 04:42:54;;;;;;;0.30;0.30;;;15.90;42.20;;;;;;6280470;28;20055;-74
2024/03/03 04:45:57;;;;;;;0.10;0.10;;;15.90;42.30;;;;;;6299200;28;20028;-74
2024/03/03 04:48:58;;;;;;;0.20;0.20;;;15.90;42.30;;;;;;6287889;28;20017;-73
2024/03/03 04:51:59;;;;;;;0.20;0.20;;;15.80;42.40;;;;;;6294466;28;20039;-74
2024/03/03 04:55:03;;;;;;;0.45;0.40;;;15.90;42.60;;;;;;6287846;28;20039;-74
2024/03/03 04:58:06;;;;;;;0.32;0.30;;;15.80;42.80;;;;;;6277364;28;20172;-74
2024/03/03 05:01:08;;;;;;;0.85;0.20;;;15.70;43.00;;;;;;6279620;28;20028;-73
2024/03/03 05:04:10;;;;;;;0.35;0.30;;;15.70;43.10;;;;;;6288102;28;20066;-74
2024/03/03 05:07:12;;;;;;;0.25;0.22;;;15.60;43.50;;;;;;6305407;28;20027;-75
2024/03/03 05:10:13;;;;;;;0.43;0.40;;;15.50;43.70;;;;;;6302966;28;20338;-74
2024/03/03 05:13:14;;;;;;;0.20;0.20;;;15.40;43.80;;;;;;6282018;28;20040;-75
2024/03/03 05:16:16;;;;;;;1.05;0.38;;;15.40;44.10;;;;;;6301988;28;20024;-73
2024/03/03 05:19:17;;;;;;;0.57;0.30;;;15.30;44.40;;;;;;6300612;28;20058;-80
2024/03/03 05:22:18;;;;;;;3.53;0.43;;;15.20;44.50;;;;;;6305028;28;20032;-73
2024/03/03 05:25:18;;;;;;;0.52;0.30;;;15.20;44.50;;;;;;6291368;28;20024;-74
2024/03/03 05:28:19;;;;;;;0.20;0.20;;;15.20;44.50;;;;;;6286691;28;20086;-73
2024/03/03 05:31:20;;;;;;;0.52;0.30;;;15.20;44.50;;;;;;6281585;28;20047;-74
2024/03/03 05:34:21;;;;;;;2.28;0.40;;;15.30;44.60;;;;;;6288683;28;20024;-72
2024/03/03 05:37:23;;;;;;;0.35;0.35;;;15.20;44.60;;;;;;6302752;28;20086;-74
2024/03/03 05:40:24;;;;;;;0.20;0.20;;;15.20;44.60;;;;;;6308519;28;20031;-74
2024/03/03 05:43:25;;;;;;;0.47;0.43;;;15.20;44.70;;;;;;6309405;28;20035;-75
2024/03/03 05:46:27;;;;;;;1.08;0.50;;;15.20;44.80;;;;;;6294158;28;20069;-75
2024/03/03 05:49:28;;;;;;;0.50;0.50;;;15.20;44.80;;;;;;6296846;28;20085;-74
2024/03/03 05:52:30;;;;;;;0.45;0.45;;;15.20;44.80;;;;;;6292628;28;20036;-72
2024/03/03 05:55:30;;;;;;;0.77;0.60;;;15.20;44.90;;;;;;6285367;28;20109;-74
2024/03/03 05:58:31;;;;;;;0.28;0.28;;;15.10;45.40;;;;;;6291632;28;20024;-74
2024/03/03 06:01:36;;;;;;;0.57;0.43;;;15.00;45.50;;;;;;6289038;28;20097;-73
2024/03/03 06:04:38;;;;;;;0.52;0.45;;;15.00;45.50;;;;;;6307462;28;20405;-74
2024/03/03 06:07:39;;;;;;;2.15;0.35;;;15.00;45.50;;;;;;6290748;28;20013;-74
2024/03/03 06:10:40;;;;;;;0.40;0.40;;;15.00;45.50;;;;;;6289547;28;20100;-74
2024/03/03 06:13:40;;;;;;;0.90;0.30;;;15.00;45.50;;;;;;6290313;28;20027;-74
2024/03/03 06:16:44;;;;;;;2.25;0.43;;;15.00;45.30;;;;;;6309493;28;20380;-75
2024/03/03 06:19:46;;;;;;;1.92;0.75;;;15.10;45.30;;;;;;6308061;28;20024;-72
2024/03/03 06:22:48;;;;;;;0.55;0.40;;;15.10;45.20;;;;;;6293249;28;20052;-75
2024/03/03 06:25:50;;;;;;;0.55;0.40;;;15.10;45.30;;;;;;6276617;28;20040;-74
2024/03/03 06:28:53;;;;;;;1.58;0.75;;;15.10;45.40;;;;;;6308007;28;20020;-73
2024/03/03 06:31:54;;;;;;;2.17;1.05;;;15.10;45.70;;;;;;6307967;28;20028;-74
2024/03/03 06:34:54;;;;;;;4.15;0.60;;;15.00;45.70;;;;;;6291505;28;20101;-74
2024/03/03 06:38:00;;;;;;;14.98;0.80;;;15.00;46.00;;;;;;6299467;28;20049;-73
2024/03/03 06:41:00;;;;;;;1.70;0.73;;;14.90;45.90;;;;;;6266625;28;21378;-74
2024/03/03 06:44:05;;;;;;;0.60;0.50;;;15.00;46.00;;;;;;6287945;28;20025;-74
2024/03/03 06:47:06;;;;;;;0.82;0.80;;;15.00;46.00;;;;;;6302740;28;20023;-74
2024/03/03 06:50:08;;;;;;;3.88;0.80;;;14.90;46.30;;;;;;6296866;28;20507;-73
2024/03/03 06:53:09;;;;;;;1.40;0.85;;;14.90;46.50;;;;;;6258809;28;20054;-74
2024/03/03 06:56:15;;;;;;;1.00;0.75;;;14.80;46.60;;;;;;6299213;28;20745;-74
2024/03/03 06:59:16;;;;;;;1.38;0.90;;;14.80;46.60;;;;;;6297159;28;20020;-74
2024/03/03 07:02:18;;;;;;;2.55;1.00;;;14.80;46.70;;;;;;6307485;28;20119;-74
2024/03/03 07:05:19;;;;;;;1.75;0.60;;;14.80;46.80;;;;;;6290474;28;20120;-74
2024/03/03 07:08:21;;;;;;;1.30;0.70;;;14.80;46.80;;;;;;6288701;28;20059;-75
2024/03/03 07:11:22;;;;;;;2.53;1.10;;;14.70;46.90;;;;;;6306908;28;20027;-75
2024/03/03 07:14:26;;;;;;;1.88;0.88;;;14.70;47.10;;;;;;6306132;28;20047;-73
2024/03/03 07:17:27;;;;;;;3.63;1.15;;;14.70;47.10;;;;;;6273282;28;20039;-73
2024/03/03 07:20:28;;;;;;;4.63;1.48;;;14.70;47.20;;;;;;6299113;28;20336;-74
2024/03/03 07:23:29;;;;;;;2.35;1.20;;;14.70;47.40;;;;;;6308040;28;20020;-74
2024/03/03 07:26:30;;;;;;;2.55;1.45;;;14.60;47.50;;;;;;6308548;28;20560;-74
2024/03/03 07:29:31;;;;;;;3.80;0.82;;;14.50;47.60;;;;;;6289248;28;20351;-75
2024/03/03 07:32:38;;;;;;;1.10;0.82;;;14.50;47.80;;;;;;6281641;28;20380;-73
2024/03/03 07:35:39;;;;;;;6.18;0.90;;;14.50;47.70;;;;;;6298097;28;20543;-74
2024/03/03 07:38:40;;;;;;;2.08;1.23;;;14.50;47.80;;;;;;6300031;28;20136;-73
2024/03/03 07:41:41;;;;;;;3.55;1.38;;;14.60;47.90;;;;;;6323161;28;20165;-74
2024/03/03 07:44:41;;;;;;;3.88;1.50;;;14.60;48.00;;;;;;6307587;28;21967;-75
2024/03/03 07:47:42;;;;;;;6.25;1.80;;;14.60;47.90;;;;;;6298878;28;20124;-73
2024/03/03 07:50:43;;;;;;;3.10;1.50;;;14.60;47.90;;;;;;6305903;28;20024;-73
2024/03/03 07:53:44;;;;;;;2.78;1.40;;;14.60;48.40;;;;;;6291271;28;20100;-74
2024/03/03 07:56:48;;;;;;;4.03;1.85;;;14.60;47.80;;;;;;6291049;28;20063;-74
2024/03/03 07:59:49;;;;;;;4.43;1.65;;;14.70;47.80;;;;;;6267011;28;20481;-73
2024/03/03 08:02:52;;;;;;;14.20;2.35;;;14.70;47.70;;;;;;6304076;28;20039;-73
2024/03/03 08:05:53;;;;;;;9.43;2.20;;;14.70;47.70;;;;;;6305799;28;20270;-73
2024/03/03 08:08:54;;;;;;;3.50;1.95;;;14.60;47.70;;;;;;6293541;28;20039;-74
2024/03/03 08:11:55;;;;;;;3.28;1.85;;;14.60;47.90;;;;;;6298829;28;20107;-74
2024/03/03 08:14:56;;;;;;;4.40;1.70;;;14.50;48.80;;;;;;6305589;28;20085;-72
2024/03/03 08:17:57;;;;;;;5.00;2.03;;;14.40;48.30;;;;;;6288394;28;20133;-75
2024/03/03 08:20:59;;;;;;;14.90;3.17;;;14.40;48.40;;;;;;6299691;28;20012;-74
2024/03/03 08:24:00;;;;;;;5.30;1.60;;;14.40;48.30;;;;;;6306204;28;20186;-74
2024/03/03 08:27:03;;;;;;;3.83;1.92;;;14.50;48.30;;;;;;6280310;28;20035;-74
2024/03/03 08:30:05;;;;;;;7.40;2.50;;;14.50;48.40;;;;;;6284244;28;20028;-74
2024/03/03 08:33:06;;;;;;;5.90;1.60;;;14.60;48.30;;;;;;6283121;28;20153;-75
2024/03/03 08:36:06;;;;;;;3.22;1.65;;;14.60;48.20;;;;;;6304666;28;20361;-73
2024/03/03 08:39:09;;;;;;;4.00;1.80;;;14.60;48.20;;;;;;6300355;28;20024;-74
2024/03/03 08:42:14;;;;;;;4.45;2.00;;;14.60;48.20;;;;;;6287841;28;20052;-74
2024/03/03 08:45:18;;;;;;;12.02;2.15;;;14.70;48.20;;;;;;6280314;28;20046;-73
2024/03/03 08:48:21;;;;;;;4.20;1.83;;;14.70;48.00;;;;;;6298301;28;20428;-73
2024/03/03 08:51:21;;;;;;;4.05;1.92;;;14.80;48.00;;;;;;6296452;28;20388;-73
2024/03/03 08:54:22;;;;;;;6.47;2.08;;;14.80;47.90;;;;;;6280351;28;20238;-73
2024/03/03 08:57:24;;;;;;;3.60;2.13;;;14.90;47.90;;;;;;6290398;28;20397;-73
2024/03/03 09:00:25;;;;;;;4.78;1.60;;;14.90;47.80;;;;;;6298633;28;20019;-73
2024/03/03 09:03:27;;;;;;;6.53;1.80;;;15.00;47.70;;;;;;6287727;28;20082;-74
2024/03/03 09:06:28;;;;;;;1.95;1.10;;;15.10;47.60;;;;;;6287772;28;20020;-74
2024/03/03 09:09:29;;;;;;;4.22;1.80;;;15.20;47.60;;;;;;6302668;28;20045;-74
2024/03/03 09:12:30;;;;;;;0.55;0.40;;;15.20;47.50;;;;;;6296597;28;20036;-73
2024/03/03 09:15:31;;;;;;;3.72;1.20;;;15.30;47.50;;;;;;6291532;28;20417;-74
2024/03/03 09:18:32;;;;;;;3.03;1.13;;;15.30;47.50;;;;;;6271472;28;20100;-75
2024/03/03 09:21:34;;;;;;;2.28;0.95;;;15.30;47.60;;;;;;6306762;28;20063;-75
2024/03/03 09:24:35;;;;;;;4.18;1.67;;;15.30;47.70;;;;;;6314269;28;20881;-75
2024/03/03 09:27:37;;;;;;;5.55;1.40;;;15.40;47.70;;;;;;6314345;28;20452;-75
2024/03/03 09:30:38;;;;;;;5.82;2.45;;;15.30;47.80;;;;;;6313002;28;20016;-75
2024/03/03 09:33:40;;;;;;;2.30;1.05;;;15.30;47.80;;;;;;6292871;28;20027;-74
2024/03/03 09:36:42;;;;;;;2.90;1.65;;;15.30;47.70;;;;;;6312354;28;20118;-73
2024/03/03 09:39:43;;;;;;;1.48;0.70;;;15.40;47.90;;;;;;6292937;28;20040;-74
2024/03/03 09:42:46;;;;;;;1.38;0.80;;;15.40;48.20;;;;;;6292187;28;20037;-74
2024/03/03 09:45:50;;;;;;;6.35;0.93;;;15.40;48.50;;;;;;6289030;28;20016;-74
2024/03/03 09:48:52;;;;;;;0.40;0.20;;;15.30;48.60;;;;;;6295675;28;20085;-75
2024/03/03 09:51:57;;;;;;;0.47;0.40;;;15.30;49.00;;;;;;6304426;28;20035;-74
2024/03/03 09:54:59;;;;;;;0.47;0.45;;;15.30;49.30;;;;;;6295954;28;20081;-73
2024/03/03 09:58:01;;;;;;;0.50;0.40;;;15.30;49.60;;;;;;6311043;28;20112;-74
2024/03/03 10:01:02;;;;;;;0.93;0.40;;;15.30;49.70;;;;;;6295183;28;20500;-74
2024/03/03 10:04:06;;;;;;;0.52;0.50;;;15.30;49.90;;;;;;6289509;28;20021;-74
2024/03/03 10:07:09;;;;;;;0.70;0.50;;;15.20;50.00;;;;;;6307265;28;20075;-74
2024/03/03 10:10:17;;;;;;;1.65;0.68;;;15.20;50.90;;;;;;6307753;28;20043;-72
2024/03/03 10:13:21;;;;;;;0.30;0.30;;;15.30;50.70;;;;;;6311042;28;20123;-74
2024/03/03 10:16:26;;;;;;;1.33;0.45;;;15.10;50.70;;;;;;6310807;28;20024;-74
2024/03/03 10:19:30;;;;;;;1.00;0.57;;;15.10;51.50;;;;;;6302589;28;20080;-74
2024/03/03 10:22:31;;;;;;;0.60;0.60;;;15.00;51.10;;;;;;6282730;28;20050;-74
2024/03/03 10:25:32;;;;;;;1.13;0.60;;;14.90;51.50;;;;;;6298578;28;20016;-74
2024/03/03 10:28:37;;;;;;;0.50;0.50;;;14.90;51.70;;;;;;6298640;28;20107;-74
2024/03/03 10:31:37;;;;;;;0.75;0.43;;;14.90;51.90;;;;;;6296303;28;20048;-75
2024/03/03 10:34:39;;;;;;;2.80;0.60;;;14.90;52.60;;;;;;6290037;28;20160;-74
2024/03/03 10:37:58;;;;;;;0.85;0.70;;;14.70;52.90;;;;;;6298959;28;20114;-74
2024/03/03 10:40:59;;;;;;;4.30;0.73;;;14.60;53.40;;;;;;6306818;28;20028;-74
2024/03/03 10:44:01;;;;;;;2.92;0.80;;;14.30;53.50;;;;;;6287468;28;20714;-75
2024/03/03 10:47:08;;;;;;;0.85;0.63;;;14.10;53.80;;;;;;6290551;28;20077;-75
2024/03/03 10:50:20;;;;;;;0.52;0.50;;;13.80;54.10;;;;;;6298066;28;20024;-73
2024/03/03 10:53:21;;;;;;;0.82;0.60;;;13.50;54.70;;;;;;6289953;28;20016;-75
2024/03/03 10:56:30;;;;;;;0.30;0.30;;;13.10;55.10;;;;;;6308322;28;20444;-74
2024/03/03 10:59:34;;;;;;;0.50;0.50;;;12.80;55.70;;;;;;6292095;28;20121;-74
2024/03/03 11:02:36;;;;;;;1.27;0.75;;;12.60;56.30;;;;;;6300413;28;20118;-75
2024/03/03 11:05:37;;;;;;;0.57;0.50;;;12.40;56.40;;;;;;6304343;28;20031;-73
2024/03/03 11:08:49;;;;;;;0.30;0.30;;;12.30;56.50;;;;;;6305523;28;20070;-76
2024/03/03 11:12:01;;;;;;;0.60;0.40;;;12.10;56.60;;;;;;6286545;28;20028;-75
2024/03/03 11:15:07;;;;;;;0.10;0.10;;;12.00;56.50;;;;;;6272106;28;20024;-74
2024/03/03 11:18:17;;;;;;;0.20;0.20;;;11.80;56.60;;;;;;6304384;28;20024;-75
2024/03/03 11:21:30;;;;;;;0.60;0.50;;;11.70;56.90;;;;;;6271570;28;20024;-75
2024/03/03 11:24:40;;;;;;;0.90;0.55;;;11.70;57.10;;;;;;6303003;28;20039;-76
2024/03/03 11:28:01;;;;;;;0.25;0.10;;;11.60;57.10;;;;;;6265209;28;20067;-74
2024/03/03 11:31:03;;;;;;;0.10;0.10;;;11.60;57.10;;;;;;6305046;28;20150;-76
2024/03/03 11:34:05;;;;;;;0.20;0.20;;;11.60;57.90;;;;;;6297965;28;20495;-75
2024/03/03 11:37:09;;;;;;;0.15;0.15;;;11.60;57.10;;;;;;6306045;28;20092;-74
2024/03/03 11:40:17;;;;;;;0.20;0.17;;;11.70;56.70;;;;;;6271511;28;20453;-75
2024/03/03 11:43:18;;;;;;;0.10;0.10;;;11.60;56.20;;;;;;6302928;28;20635;-75
2024/03/03 11:46:59;;;;;;;0.47;0.17;;;11.70;56.20;;;;;;6307058;28;20521;-77
2024/03/03 11:50:01;;;;;;;0.30;0.10;;;11.70;55.60;;;;;;6206445;28;20028;-75
2024/03/03 11:53:02;;;;;;;0.75;0.20;;;11.70;55.10;;;;;;6191268;28;20119;-77
2024/03/03 11:56:03;;;;;;;0.08;0.05;;;11.60;54.80;;;;;;6187458;28;20080;-77
2024/03/03 11:59:05;;;;;;;0.10;0.10;;;11.50;54.90;;;;;;6215161;28;20091;-77
2024/03/03 12:02:10;;;;;;;0.77;0.63;;;11.60;54.80;;;;;;6173319;28;20290;-77
2024/03/03 12:05:15;;;;;;;0.20;0.20;;;11.50;54.40;;;;;;6228199;28;20071;-77
2024/03/03 12:08:19;;;;;;;0.10;0.10;;;11.50;54.40;;;;;;6223144;28;20040;-75
2024/03/03 12:11:20;;;;;;;0.10;0.10;;;11.50;54.00;;;;;;6211324;28;20022;-75
2024/03/03 12:14:21;;;;;;;0.40;0.32;;;11.40;53.80;;;;;;6204259;28;20418;-76
2024/03/03 12:17:22;;;;;;;0.13;0.13;;;11.30;53.70;;;;;;6228511;28;20022;-76
2024/03/03 12:20:26;;;;;;;0.10;0.10;;;11.30;53.80;;;;;;6244582;28;20146;-74
2024/03/03 12:23:28;;;;;;;0.30;0.30;;;11.20;53.60;;;;;;6280638;28;20084;-76
2024/03/03 12:26:29;;;;;;;5.20;0.45;;;11.00;53.70;;;;;;6301072;28;20020;-76
2024/03/03 12:29:30;;;;;;;3.40;0.50;;;11.00;54.30;;;;;;6295220;28;20023;-75
2024/03/03 12:32:35;;;;;;;0.55;0.50;;;10.80;54.60;;;;;;6299785;28;20453;-76
2024/03/03 12:35:36;;;;;;;0.25;0.25;;;10.50;54.70;;;;;;6285479;28;20043;-74
2024/03/03 12:38:37;;;;;;;0.10;0.10;;;10.30;55.10;;;;;;6304778;28;20027;-76
2024/03/03 12:41:39;;;;;;;2.25;0.15;;;10.10;55.50;;;;;;6296432;28;20028;-75
2024/03/03 12:44:42;;;;;;;1.83;0.55;;;10.00;55.90;;;;;;6250845;28;20555;-76
2024/03/03 12:47:44;;;;;;;1.65;0.68;;;9.90;56.30;;;;;;6303780;28;20019;-76
2024/03/03 12:50:58;;;;;;;0.32;0.32;;;9.80;56.50;;;;;;6289589;28;20024;-75
2024/03/03 12:54:01;;;;;;;0.63;0.30;;;9.80;56.50;;;;;;6291785;28;20036;-77
2024/03/03 12:57:04;;;;;;;0.35;0.25;;;9.80;56.50;;;;;;6292868;28;20059;-77
2024/03/03 13:00:07;;;;;;;0.28;0.28;;;9.70;56.80;;;;;;6280650;28;20107;-73
2024/03/03 13:03:08;;;;;;;0.20;0.20;;;9.70;56.90;;;;;;6293153;28;20032;-76
2024/03/03 13:06:17;;;;;;;2.50;0.60;;;9.60;57.10;;;;;;6301669;28;20103;-77
2024/03/03 13:09:18;;;;;;;0.40;0.40;;;9.50;57.50;;;;;;6304290;28;20055;-77
2024/03/03 13:12:19;;;;;;;0.40;0.40;;;9.50;57.60;;;;;;6277986;28;20033;-78
2024/03/03 13:15:29;;;;;;;0.30;0.20;;;9.50;57.50;;;;;;6281833;28;20336;-78
2024/03/03 13:18:30;;;;;;;0.17;0.10;;;9.50;57.50;;;;;;6287124;28;20036;-76
2024/03/03 13:21:31;;;;;;;0.10;0.10;;;9.60;57.60;;;;;;6268856;28;20528;-77
2024/03/03 13:24:33;;;;;;;0.60;0.52;;;9.60;57.90;;;;;;6296632;28;20023;-75
2024/03/03 13:27:35;;;;;;;1.20;0.32;;;9.50;57.90;;;;;;6301746;28;20468;-77
2024/03/03 13:30:38;;;;;;;0.10;0.10;;;9.40;58.00;;;;;;6305336;28;20020;-76
2024/03/03 13:33:41;;;;;;;0.32;0.32;;;9.30;58.50;;;;;;6280707;28;20524;-75
2024/03/03 13:36:42;;;;;;;0.30;0.20;;;9.30;58.70;;;;;;6302039;28;20035;-77
2024/03/03 13:39:44;;;;;;;1.65;0.55;;;9.20;58.70;;;;;;6304347;28;20038;-77
2024/03/03 13:42:45;;;;;;;0.20;0.20;;;9.20;58.80;;;;;;6290834;28;20041;-77
2024/03/03 13:45:46;;;;;;;0.57;0.32;;;9.30;58.80;;;;;;6288297;28;20033;-75
2024/03/03 13:48:47;;;;;;;0.20;0.20;;;9.30;58.80;;;;;;6284137;28;20431;-77
2024/03/03 13:51:49;;;;;;;0.45;0.38;;;9.30;58.80;;;;;;6301531;28;20449;-77
2024/03/03 13:54:51;;;;;;;2.17;0.40;;;9.40;59.00;;;;;;6294001;28;20024;-76
2024/03/03 13:57:53;;;;;;;1.60;0.20;;;9.40;58.80;;;;;;6285650;28;20140;-79
2024/03/03 14:00:54;;;;;;;0.63;0.30;;;9.40;58.80;;;;;;6304234;28;20031;-76
2024/03/03 14:03:55;;;;;;;5.95;0.50;;;9.40;58.60;;;;;;6297113;28;20134;-78
2024/03/03 14:06:57;;;;;;;0.25;0.25;;;9.40;58.60;;;;;;6311347;28;20032;-75
2024/03/03 14:09:57;;;;;;;0.82;0.50;;;9.40;58.70;;;;;;6278265;28;20044;-76
2024/03/03 14:12:58;;;;;;;3.92;0.40;;;9.30;58.60;;;;;;6304737;28;20711;-78
2024/03/03 14:16:04;;;;;;;0.20;0.20;;;9.30;58.50;;;;;;6286617;28;20051;-77
2024/03/03 14:19:08;;;;;;;0.20;0.20;;;9.40;58.50;;;;;;6302625;28;20032;-77
2024/03/03 14:22:12;;;;;;;0.28;0.28;;;9.30;58.50;;;;;;6294928;28;20045;-79
2024/03/03 14:25:13;;;;;;;0.85;0.35;;;9.30;58.60;;;;;;6299882;28;20089;-78
2024/03/03 14:28:14;;;;;;;0.43;0.40;;;9.20;58.70;;;;;;6299483;28;20024;-77
2024/03/03 14:31:18;;;;;;;0.80;0.50;;;9.20;58.80;;;;;;6283459;28;20048;-77
2024/03/03 14:34:19;;;;;;;0.13;0.13;;;9.30;58.90;;;;;;6295746;28;20165;-78
2024/03/03 14:37:21;;;;;;;0.50;0.50;;;9.30;58.80;;;;;;6307811;28;20044;-78
2024/03/03 14:40:22;;;;;;;1.77;0.57;;;9.30;58.80;;;;;;6308153;28;20039;-77
2024/03/03 14:43:24;;;;;;;0.10;0.10;;;9.30;58.80;;;;;;6300307;28;20110;-79
2024/03/03 14:46:24;;;;;;;0.90;0.43;;;9.30;58.60;;;;;;6293228;28;20111;-78
2024/03/03 14:49:25;;;;;;;0.20;0.20;;;9.30;58.50;;;;;;6286868;28;20035;-78
2024/03/03 14:52:27;;;;;;;0.90;0.30;;;9.30;58.50;;;;;;6286735;28;20032;-77
2024/03/03 14:55:27;;;;;;;0.30;0.30;;;9.50;58.60;;;;;;6282736;28;20502;-79
2024/03/03 14:58:30;;;;;;;0.20;0.20;;;9.30;58.60;;;;;;6308920;28;20032;-78
2024/03/03 15:01:31;;;;;;;0.45;0.22;;;9.30;58.70;;;;;;6302810;28;20035;-78
2024/03/03 15:04:31;;;;;;;0.13;0.13;;;9.30;58.70;;;;;;6306447;28;20036;-78
2024/03/03 15:07:32;;;;;;;0.10;0.10;;;9.30;58.80;;;;;;6286632;28;20086;-77
2024/03/03 15:10:33;;;;;;;0.32;0.30;;;9.30;58.80;;;;;;6305781;28;20036;-78
2024/03/03 15:13:34;;;;;;;0.98;0.40;;;9.30;58.80;;;;;;6289797;28;20077;-78
2024/03/03 15:16:35;;;;;;;0.28;0.28;;;9.30;59.00;;;;;;6305583;28;20040;-76
2024/03/03 15:19:35;;;;;;;0.08;0.08;;;9.20;59.10;;;;;;6307969;28;20128;-78
2024/03/03 15:22:36;;;;;;;0.15;0.15;;;9.10;59.40;;;;;;6292158;28;20048;-78
2024/03/03 15:25:37;;;;;;;0.55;0.40;;;9.10;59.60;;;;;;6304412;28;20032;-78
2024/03/03 15:28:38;;;;;;;0.17;0.17;;;9.10;59.60;;;;;;6303504;28;20118;-78
2024/03/03 15:31:39;;;;;;;2.83;0.40;;;9.10;59.60;;;;;;6307927;28;20353;-78
2024/03/03 15:34:40;;;;;;;4.45;0.30;;;9.10;59.60;;;;;;6302006;28;20076;-76
2024/03/03 15:37:41;;;;;;;0.40;0.30;;;9.10;59.10;;;;;;6288730;28;20376;-78
2024/03/03 15:40:41;;;;;;;0.52;0.28;;;9.20;58.90;;;;;;6307619;28;20123;-78
2024/03/03 15:43:45;;;;;;;0.08;0.08;;;9.10;58.70;;;;;;6302963;28;20039;-80
2024/03/03 15:46:46;;;;;;;0.20;0.10;;;9.10;58.50;;;;;;6299815;28;20021;-77
2024/03/03 15:49:47;;;;;;;1.30;0.40;;;9.20;58.40;;;;;;6288757;28;20043;-79
2024/03/03 15:52:47;;;;;;;0.10;0.10;;;9.20;58.30;;;;;;6298186;28;20028;-78